createdAt,value
2022-12-24T07:09:28.477Z,99265.40
2022-12-24T07:17:25.988Z,99294.40
2022-12-24T07:20:00.211Z,99298.60
2022-12-24T07:22:33.888Z,99310.80
2022-12-24T07:25:09.755Z,99310.40
2022-12-24T07:27:44.160Z,99324.60
2022-12-24T07:30:19.004Z,99336.20
2022-12-24T07:32:53.364Z,99339.60
2022-12-24T07:35:27.458Z,99350.40
2022-12-24T07:38:02.471Z,99360.60
2022-12-24T07:40:38.561Z,99357.60
2022-12-24T07:43:12.318Z,99368.40
2022-12-24T07:45:46.189Z,99366.20
2022-12-24T07:48:20.245Z,99367.80
2022-12-24T07:50:55.228Z,99364.00
2022-12-24T07:53:31.638Z,99364.00
2022-12-24T07:56:12.461Z,99367.80
2022-12-24T07:58:47.448Z,99381.40
2022-12-24T08:01:22.086Z,99382.40
2022-12-24T08:03:56.316Z,99385.20
2022-12-24T08:06:30.465Z,99399.60
2022-12-24T08:09:04.833Z,99397.00
2022-12-24T08:11:38.987Z,99401.60
2022-12-24T08:14:13.044Z,99404.00
2022-12-24T08:16:47.356Z,99406.40
2022-12-24T08:19:21.881Z,99411.00
2022-12-24T08:21:56.105Z,99422.80
2022-12-24T08:24:30.470Z,99425.40
2022-12-24T08:27:04.734Z,99432.80
2022-12-24T08:29:39.105Z,99430.20
2022-12-24T08:44:15.741Z,99470.60
2022-12-24T08:46:59.090Z,99487.40
2022-12-24T08:49:33.903Z,99491.40
2022-12-24T08:52:08.633Z,99500.00
2022-12-24T08:54:43.117Z,99502.20
2022-12-24T08:57:17.553Z,99502.40
2022-12-24T08:59:51.708Z,99509.60
2022-12-24T09:02:26.227Z,99513.60
2022-12-24T09:05:00.676Z,99512.40
2022-12-24T09:07:34.981Z,99527.60
2022-12-24T09:10:11.311Z,99530.60
2022-12-24T09:12:45.616Z,99531.20
2022-12-24T09:15:20.773Z,99532.20
2022-12-24T09:17:55.465Z,99538.60
2022-12-24T09:20:29.687Z,99543.60
2022-12-24T09:23:03.628Z,99546.40
2022-12-24T09:25:42.410Z,99554.20
2022-12-24T09:28:16.336Z,99552.60
2022-12-24T09:30:58.835Z,99563.20
2022-12-24T09:33:35.224Z,99561.80
2022-12-24T09:36:11.350Z,99572.20
2022-12-24T09:38:45.575Z,99576.40
2022-12-24T09:41:42.720Z,99576.80
2022-12-24T09:44:40.726Z,99582.80
2022-12-24T09:47:31.910Z,99587.20
2022-12-24T09:50:25.452Z,99595.40
2022-12-24T09:53:04.079Z,99600.80
2022-12-24T09:55:44.084Z,99604.80
2022-12-24T09:58:38.255Z,99609.60
2022-12-24T10:01:17.961Z,99605.40
2022-12-24T10:03:52.443Z,99602.80
2022-12-24T10:06:35.651Z,99606.80
2022-12-24T10:09:23.003Z,99616.40
2022-12-24T10:12:08.829Z,99616.00
2022-12-24T10:15:04.396Z,99620.20
2022-12-24T10:17:55.168Z,99634.20
2022-12-24T10:20:45.989Z,99640.20
2022-12-24T10:23:28.773Z,99642.60
2022-12-24T10:26:16.915Z,99644.20
2022-12-24T10:28:56.138Z,99646.60
2022-12-24T10:31:36.224Z,99651.80
2022-12-24T10:34:21.528Z,99661.00
2022-12-24T10:36:56.416Z,99664.60
2022-12-24T10:39:31.306Z,99665.60
2022-12-24T10:42:08.826Z,99668.40
2022-12-24T10:44:43.666Z,99671.60
2022-12-24T10:47:21.933Z,99671.20
2022-12-24T10:50:06.069Z,99677.40
2022-12-24T10:52:44.987Z,99680.80
2022-12-24T10:55:28.319Z,99683.40
2022-12-24T10:58:14.008Z,99687.20
2022-12-24T11:00:55.312Z,99693.00
2022-12-24T11:03:35.897Z,99696.20
2022-12-24T11:06:21.053Z,99698.80
2022-12-24T11:08:54.864Z,99711.00
2022-12-24T11:11:35.961Z,99713.60
2022-12-24T11:14:19.231Z,99712.40
2022-12-24T11:16:57.329Z,99712.80
2022-12-24T11:19:40.255Z,99726.20
2022-12-24T11:22:25.873Z,99729.80
2022-12-24T11:25:07.684Z,99723.80
2022-12-24T11:27:51.945Z,99725.60
2022-12-24T11:30:34.290Z,99731.40
2022-12-24T11:33:27.061Z,99739.40
2022-12-24T11:36:08.532Z,99739.20
2022-12-24T11:38:43.004Z,99745.40
2022-12-24T11:41:17.656Z,99738.00
2022-12-24T11:44:03.487Z,99741.00
2022-12-24T11:46:52.416Z,99740.80
2022-12-24T11:49:33.479Z,99748.40
2022-12-24T11:52:25.078Z,99753.00
2022-12-24T11:55:22.830Z,99751.80
2022-12-24T11:58:03.340Z,99758.80
2022-12-24T12:00:37.246Z,99765.80
2022-12-24T12:03:28.835Z,99767.60
2022-12-24T12:06:08.615Z,99774.80
2022-12-24T12:08:44.581Z,99778.40
2022-12-24T12:11:19.840Z,99776.80
2022-12-24T12:13:54.551Z,99780.40
2022-12-24T12:16:55.315Z,99782.80
2022-12-24T12:19:32.732Z,99786.20
2022-12-24T12:22:17.034Z,99796.40
2022-12-24T12:24:57.357Z,99800.60
2022-12-24T12:27:37.413Z,99801.80
2022-12-24T12:30:21.905Z,99806.40
2022-12-24T12:33:05.909Z,99816.60
2022-12-24T12:35:43.541Z,99818.20
2022-12-24T12:38:24.147Z,99821.60
2022-12-24T12:41:34.208Z,99817.40
2022-12-24T12:44:47.378Z,99823.00
2022-12-24T12:47:53.638Z,99823.20
2022-12-24T12:50:36.187Z,99826.20
2022-12-24T12:53:33.405Z,99830.20
2022-12-24T12:56:19.370Z,99831.00
2022-12-24T12:59:00.413Z,99830.00
2022-12-24T13:01:46.630Z,99834.40
2022-12-24T13:05:19.867Z,99831.00
2022-12-24T13:08:23.460Z,99827.40
2022-12-24T13:11:22.869Z,99837.80
2022-12-24T13:14:42.926Z,99842.40
2022-12-24T13:17:50.786Z,99842.00
2022-12-24T13:20:30.746Z,99850.80
2022-12-24T13:23:16.263Z,99852.40
2022-12-24T13:25:53.619Z,99852.80
2022-12-24T13:28:47.757Z,99849.40
2022-12-24T13:31:33.179Z,99856.40
2022-12-24T13:34:37.859Z,99859.20
2022-12-24T13:37:33.911Z,99861.40
2022-12-24T13:40:24.120Z,99865.40
2022-12-24T13:43:12.600Z,99866.80
2022-12-24T13:45:56.239Z,99867.20
2022-12-24T13:48:37.527Z,99872.00
2022-12-24T13:51:28.488Z,99882.20
2022-12-24T13:54:04.169Z,99883.00
2022-12-24T13:56:41.346Z,99888.80
2022-12-24T13:59:38.322Z,99887.80
2022-12-24T14:02:24.649Z,99891.60
2022-12-24T14:05:04.833Z,99893.20
2022-12-24T14:07:46.082Z,99891.20
2022-12-24T14:10:30.561Z,99888.20
2022-12-24T14:13:09.115Z,99889.20
2022-12-24T14:16:09.294Z,99895.00
2022-12-24T14:18:47.551Z,99898.80
2022-12-24T14:21:28.293Z,99902.20
2022-12-24T14:24:08.403Z,99898.00
2022-12-24T14:26:53.645Z,99903.60
2022-12-24T14:29:33.377Z,99902.60
2022-12-24T14:32:18.275Z,99905.80
2022-12-24T14:35:15.491Z,99912.80
2022-12-24T14:37:58.419Z,99919.00
2022-12-24T14:40:36.240Z,99928.80
2022-12-24T14:43:23.070Z,99934.60
2022-12-24T14:46:07.622Z,99932.20
2022-12-24T14:48:51.670Z,99940.20
2022-12-24T14:51:38.774Z,99943.40
2022-12-24T14:54:39.535Z,99956.80
2022-12-24T14:57:28.455Z,99968.20
2022-12-24T15:00:19.271Z,99972.60
2022-12-24T15:02:55.504Z,99980.60
2022-12-24T15:05:32.451Z,99985.20
2022-12-24T15:08:16.102Z,99991.60
2022-12-24T15:10:59.753Z,99996.00
2022-12-24T15:13:39.935Z,100003.20
2022-12-24T15:16:20.400Z,100008.80
2022-12-24T15:18:58.941Z,100013.00
2022-12-24T15:21:41.784Z,100013.20
2022-12-24T15:24:33.081Z,100017.80
2022-12-24T15:27:18.140Z,100022.40
2022-12-24T15:29:55.308Z,100023.20
2022-12-24T15:32:29.702Z,100026.60
2022-12-24T15:35:03.616Z,100023.40
2022-12-24T15:37:42.891Z,100026.40
2022-12-24T15:40:28.431Z,100030.00
2022-12-24T15:43:02.318Z,100038.20
2022-12-24T15:45:45.653Z,100043.00
2022-12-24T15:48:27.518Z,100042.80
2022-12-24T15:51:04.945Z,100043.80
2022-12-24T15:53:45.928Z,100047.60
2022-12-24T15:56:36.810Z,100049.00
2022-12-24T15:59:37.469Z,100063.00
2022-12-24T16:02:45.868Z,100059.60
2022-12-24T16:05:41.230Z,100064.80
2022-12-24T16:08:32.785Z,100059.80
2022-12-24T16:11:20.927Z,100063.60
2022-12-24T16:14:08.766Z,100075.20
2022-12-24T16:16:48.274Z,100079.00
2022-12-24T16:19:26.067Z,100083.40
2022-12-24T16:22:23.291Z,100086.20
2022-12-24T16:24:57.787Z,100085.80
2022-12-24T16:27:32.141Z,100091.00
2022-12-24T16:30:07.110Z,100092.20
2022-12-24T16:32:43.144Z,100094.20
2022-12-24T16:35:28.771Z,100093.60
2022-12-24T16:38:02.558Z,100104.80
2022-12-24T16:40:36.729Z,100117.60
2022-12-24T16:43:29.162Z,100115.40
2022-12-24T16:46:08.416Z,100119.40
2022-12-24T16:48:44.023Z,100130.40
2022-12-24T16:51:18.196Z,100132.80
2022-12-24T16:53:52.499Z,100123.20
2022-12-24T16:56:26.507Z,100132.80
2022-12-24T16:59:01.105Z,100136.40
2022-12-24T17:01:34.936Z,100144.80
2022-12-24T17:04:09.650Z,100142.00
2022-12-24T17:06:43.851Z,100143.60
2022-12-24T17:09:17.962Z,100145.60
2022-12-24T17:11:52.242Z,100146.60
2022-12-24T17:14:26.369Z,100149.60
2022-12-24T17:17:00.507Z,100154.00
2022-12-24T17:19:35.474Z,100156.40
2022-12-24T17:22:09.747Z,100162.00
2022-12-24T17:24:44.049Z,100166.00
2022-12-24T17:27:18.873Z,100173.60
2022-12-24T17:29:53.103Z,100180.80
2022-12-24T17:32:28.528Z,100183.40
2022-12-24T17:35:03.147Z,100180.00
2022-12-24T17:37:37.319Z,100186.60
2022-12-24T17:40:14.755Z,100194.80
2022-12-24T17:42:49.009Z,100193.00
2022-12-24T17:45:23.259Z,100196.00
2022-12-24T17:47:57.313Z,100195.00
2022-12-24T17:50:31.234Z,100191.20
2022-12-24T17:53:05.093Z,100196.40
2022-12-24T17:55:43.137Z,100196.00
2022-12-24T17:58:17.541Z,100207.80
2022-12-24T18:00:53.148Z,100204.00
2022-12-24T18:03:27.605Z,100211.80
2022-12-24T18:06:08.645Z,100210.00
2022-12-24T18:08:46.592Z,100218.00
2022-12-24T18:11:25.552Z,100222.60
2022-12-24T18:14:01.301Z,100227.20
2022-12-24T18:16:37.782Z,100229.40
2022-12-24T18:19:14.427Z,100234.00
2022-12-24T18:21:48.881Z,100230.40
2022-12-24T18:24:23.844Z,100233.00
2022-12-24T18:26:57.810Z,100238.80
2022-12-24T18:29:32.165Z,100239.60
2022-12-24T18:32:07.060Z,100245.60
2022-12-24T18:34:41.688Z,100253.20
2022-12-24T18:37:15.638Z,100254.00
2022-12-24T18:39:51.237Z,100256.80
2022-12-24T18:42:26.019Z,100256.40
2022-12-24T18:45:00.052Z,100258.60
2022-12-24T18:47:33.935Z,100257.40
2022-12-24T18:50:10.574Z,100261.40
2022-12-24T18:52:45.192Z,100263.00
2022-12-24T18:55:19.916Z,100264.60
2022-12-24T18:57:54.032Z,100262.20
2022-12-24T19:00:28.314Z,100263.00
2022-12-24T19:03:02.271Z,100270.80
2022-12-24T19:05:37.089Z,100275.00
2022-12-24T19:08:37.816Z,100273.20
2022-12-24T19:11:05.498Z,100276.80
2022-12-24T19:13:39.773Z,100280.80
2022-12-24T19:16:14.039Z,100285.40
2022-12-24T19:18:48.671Z,100285.00
2022-12-24T19:21:23.006Z,100280.00
2022-12-24T19:23:57.305Z,100286.00
2022-12-24T19:26:31.499Z,100281.40
2022-12-24T19:29:05.811Z,100290.20
2022-12-24T19:31:39.761Z,100293.60
2022-12-24T19:34:13.924Z,100292.80
2022-12-24T19:36:48.285Z,100303.00
2022-12-24T19:39:25.421Z,100308.40
2022-12-24T19:42:04.428Z,100316.00
2022-12-24T19:44:38.889Z,100314.80
2022-12-24T19:47:12.908Z,100316.80
2022-12-24T19:49:46.938Z,100316.00
2022-12-24T19:52:21.370Z,100318.40
2022-12-24T19:54:55.099Z,100316.40
2022-12-24T19:57:29.159Z,100315.00
2022-12-24T20:00:02.986Z,100313.20
2022-12-24T20:02:46.213Z,100321.80
2022-12-24T20:05:20.617Z,100331.00
2022-12-24T20:07:54.455Z,100328.40
2022-12-24T20:10:28.628Z,100329.00
2022-12-24T20:13:06.163Z,100338.40
2022-12-24T20:15:45.578Z,100339.20
2022-12-24T20:18:19.692Z,100345.20
2022-12-24T20:20:53.617Z,100346.20
2022-12-24T20:23:27.501Z,100347.80
2022-12-24T20:26:07.301Z,100349.40
2022-12-24T20:28:42.609Z,100352.60
2022-12-24T20:31:19.780Z,100358.20
2022-12-24T20:33:54.566Z,100365.60
2022-12-24T20:36:31.554Z,100366.60
2022-12-24T20:39:07.413Z,100367.20
2022-12-24T20:41:41.572Z,100365.80
2022-12-24T20:44:16.365Z,100372.00
2022-12-24T20:46:50.370Z,100379.20
2022-12-24T20:49:24.634Z,100376.20
2022-12-24T20:51:59.028Z,100375.60
2022-12-24T20:54:33.535Z,100379.20
2022-12-24T20:57:07.867Z,100382.20
2022-12-24T20:59:42.753Z,100382.40
2022-12-24T21:02:18.787Z,100382.40
2022-12-24T21:04:56.631Z,100382.00
2022-12-24T21:07:35.919Z,100386.80
2022-12-24T21:10:12.528Z,100389.00
2022-12-24T21:12:50.553Z,100389.40
2022-12-24T21:15:29.211Z,100393.80
2022-12-24T21:18:10.601Z,100401.40
2022-12-24T21:20:45.219Z,100398.80
2022-12-24T21:23:18.915Z,100399.00
2022-12-24T21:26:02.953Z,100401.00
2022-12-24T21:28:37.371Z,100396.00
2022-12-24T21:31:15.565Z,100394.40
2022-12-24T21:33:49.855Z,100395.40
2022-12-24T21:36:23.724Z,100393.40
2022-12-24T21:38:57.923Z,100397.80
2022-12-24T21:41:31.983Z,100391.20
2022-12-24T21:44:06.851Z,100398.40
2022-12-24T21:46:40.606Z,100402.40
2022-12-24T21:49:33.445Z,100395.60
2022-12-24T21:52:08.017Z,100393.40
2022-12-24T21:54:43.590Z,100400.20
2022-12-24T21:57:35.294Z,100409.60
2022-12-24T22:00:26.101Z,100414.00
2022-12-24T22:03:01.492Z,100408.60
2022-12-24T22:05:37.405Z,100407.80
2022-12-24T22:08:44.169Z,100408.00
2022-12-24T22:11:32.926Z,100410.00
2022-12-24T22:14:07.505Z,100415.60
2022-12-24T22:16:42.021Z,100420.80
2022-12-24T22:19:16.005Z,100420.00
2022-12-24T22:21:50.140Z,100420.00
2022-12-24T22:24:25.913Z,100420.80
2022-12-24T22:27:00.338Z,100419.80
2022-12-24T22:29:34.822Z,100424.60
2022-12-24T22:32:09.094Z,100434.20
2022-12-24T22:34:43.012Z,100435.60
2022-12-24T22:37:17.247Z,100431.00
2022-12-24T22:39:51.084Z,100431.00
2022-12-24T22:42:25.479Z,100432.40
2022-12-24T22:44:59.874Z,100430.00
2022-12-24T22:47:34.719Z,100433.40
2022-12-24T22:50:11.147Z,100433.40
2022-12-24T22:52:45.151Z,100435.00
2022-12-24T22:55:19.367Z,100436.20
2022-12-24T22:57:53.546Z,100441.20
2022-12-24T23:00:44.165Z,100438.80
2022-12-24T23:03:18.425Z,100441.20
2022-12-24T23:06:00.844Z,100441.00
2022-12-24T23:08:36.257Z,100444.40
2022-12-24T23:11:13.829Z,100440.20
2022-12-24T23:14:06.398Z,100446.80
2022-12-24T23:16:42.617Z,100457.20
2022-12-24T23:19:16.877Z,100458.40
2022-12-24T23:21:50.871Z,100464.40
2022-12-24T23:24:25.172Z,100463.20
2022-12-24T23:27:01.542Z,100468.80
2022-12-24T23:29:36.684Z,100472.00
2022-12-24T23:32:11.867Z,100478.00
2022-12-24T23:34:46.023Z,100486.20
2022-12-24T23:37:20.080Z,100496.60
2022-12-24T23:39:54.028Z,100494.60
2022-12-24T23:42:28.111Z,100495.20
2022-12-24T23:45:03.428Z,100502.00
2022-12-24T23:47:37.431Z,100496.60
2022-12-24T23:50:13.695Z,100502.60
2022-12-24T23:52:47.656Z,100501.00
2022-12-24T23:55:22.125Z,100504.00
2022-12-24T23:57:56.519Z,100510.20
